Time;durP1;ratioP1;P1;durP2;ratioP2;P2;SDS_P1;SDS_P2;PMS_P1;PMS_P2;Temp;Humidity;BMP_temperature;BMP_pressure;BME280_temperature;BME280_humidity;BME280_pressure;Samples;Min_cycle;Max_cycle;Signal;HPM_P1;HPM_P2
2021/01/16 00:01:04;;;;;;;14.90;10.20;;;-6.60;94.60;;;;;;6372527;27;20023;-77
2021/01/16 00:04:05;;;;;;;17.17;11.10;;;;;;;;;;6372269;27;20406;-78
2021/01/16 00:07:06;;;;;;;16.80;10.52;;;-6.70;99.90;;;;;;6372502;27;20122;-76
2021/01/16 00:10:07;;;;;;;15.48;9.90;;;-6.70;95.30;;;;;;6372371;28;20027;-76
2021/01/16 00:13:16;;;;;;;15.93;9.80;;;-6.10;99.90;;;;;;6353925;27;20032;-76
2021/01/16 00:16:16;;;;;;;17.10;11.02;;;-6.60;95.10;;;;;;6372305;28;20103;-78
2021/01/16 00:19:17;;;;;;;17.40;10.23;;;-6.50;99.90;;;;;;6375618;27;20019;-77
2021/01/16 00:22:17;;;;;;;18.52;11.45;;;-6.60;99.90;;;;;;6377385;27;20417;-78
2021/01/16 00:25:18;;;;;;;15.18;9.45;;;-6.50;95.30;;;;;;6377062;27;20054;-76
2021/01/16 00:28:25;;;;;;;14.02;9.30;;;-6.70;94.50;;;;;;6358916;27;20042;-75
2021/01/16 00:31:26;;;;;;;18.00;9.85;;;-6.50;93.50;;;;;;6376967;27;20055;-77
2021/01/16 00:34:27;;;;;;;28.45;13.32;;;-6.40;99.90;;;;;;6377091;27;20023;-75
2021/01/16 00:37:27;;;;;;;26.63;14.45;;;-6.30;99.90;;;;;;6376870;27;20369;-76
2021/01/16 00:40:28;;;;;;;44.47;19.67;;;-6.40;99.90;;;;;;6377006;27;20059;-76
2021/01/16 00:43:28;;;;;;;20.77;11.05;;;-6.30;99.90;;;;;;6376632;27;20019;-76
2021/01/16 00:46:29;;;;;;;30.38;14.57;;;-6.90;99.90;;;;;;6376922;27;20471;-77
2021/01/16 00:49:29;;;;;;;35.65;17.02;;;-6.80;99.90;;;;;;6376758;27;20143;-77
2021/01/16 00:52:30;;;;;;;27.45;13.50;;;-6.90;99.90;;;;;;6376407;27;20518;-76
2021/01/16 00:55:31;;;;;;;27.92;14.45;;;;;;;;;;6376608;27;20019;-77
2021/01/16 00:58:32;;;;;;;22.15;11.93;;;-6.90;99.90;;;;;;6376348;27;20360;-76
2021/01/16 01:01:34;;;;;;;25.45;12.75;;;-7.00;99.90;;;;;;6376294;27;20019;-76
2021/01/16 01:04:35;;;;;;;18.20;10.43;;;-6.80;99.90;;;;;;6375985;27;20041;-78
2021/01/16 01:07:35;;;;;;;14.07;9.02;;;-6.70;99.90;;;;;;6376072;27;20461;-76
2021/01/16 01:10:43;;;;;;;14.68;9.75;;;-6.60;99.90;;;;;;6375997;27;20089;-77
2021/01/16 01:13:44;;;;;;;16.90;9.32;;;;;;;;;;6376179;27;20148;-77
2021/01/16 01:16:44;;;;;;;15.05;9.32;;;-6.70;96.40;;;;;;6375922;27;20453;-76
2021/01/16 01:19:45;;;;;;;43.35;20.55;;;-6.10;99.90;;;;;;6375837;27;20038;-76
2021/01/16 01:22:47;;;;;;;16.98;9.73;;;-6.10;99.90;;;;;;6376096;27;20034;-77
2021/01/16 01:25:48;;;;;;;26.33;13.43;;;;;;;;;;6375720;27;20066;-76
2021/01/16 01:28:48;;;;;;;49.50;21.75;;;-6.30;99.90;;;;;;6374921;27;20449;-78
2021/01/16 01:31:49;;;;;;;36.50;15.90;;;-6.30;95.00;;;;;;6374897;27;20023;-77
2021/01/16 01:34:49;;;;;;;15.82;9.48;;;-6.50;95.00;;;;;;6375577;27;20023;-77
2021/01/16 01:37:52;;;;;;;64.80;29.00;;;-6.20;95.60;;;;;;6375430;27;20019;-76
2021/01/16 01:40:52;;;;;;;26.60;14.02;;;-6.30;93.40;;;;;;6375575;27;20126;-76
2021/01/16 01:43:53;;;;;;;17.95;11.00;;;-6.40;94.20;;;;;;6375295;27;20023;-77
2021/01/16 01:46:53;;;;;;;12.60;8.35;;;-6.60;99.90;;;;;;6375413;27;20079;-76
2021/01/16 01:49:54;;;;;;;18.13;11.07;;;-6.40;99.90;;;;;;6375391;27;20453;-76
2021/01/16 01:52:55;;;;;;;22.27;13.25;;;-6.20;99.90;;;;;;6356624;27;20029;-76
2021/01/16 01:55:56;;;;;;;21.45;12.27;;;-6.40;94.40;;;;;;6375197;27;20027;-76
2021/01/16 01:58:58;;;;;;;13.77;9.63;;;-6.40;95.10;;;;;;6374803;27;20132;-76
2021/01/16 02:01:59;;;;;;;14.63;8.85;;;-6.10;99.90;;;;;;6375031;27;20022;-76
2021/01/16 02:04:59;;;;;;;33.80;17.88;;;-6.30;99.90;;;;;;6374987;27;20044;-76
2021/01/16 02:08:00;;;;;;;38.97;19.33;;;-6.20;95.00;;;;;;6356216;27;20027;-76
2021/01/16 02:11:01;;;;;;;50.13;21.10;;;-6.20;94.10;;;;;;6374568;27;20102;-77
2021/01/16 02:14:02;;;;;;;22.50;10.68;;;-6.10;95.30;;;;;;6374542;27;20019;-76
2021/01/16 02:17:02;;;;;;;46.70;19.60;;;-6.10;94.80;;;;;;6356316;27;20061;-76
2021/01/16 02:20:11;;;;;;;16.48;10.02;;;-5.80;95.20;;;;;;6338980;27;20743;-75
2021/01/16 02:23:11;;;;;;;23.52;12.38;;;-6.00;93.20;;;;;;6374458;27;20027;-76
2021/01/16 02:26:15;;;;;;;59.67;24.55;;;-6.10;93.60;;;;;;6374218;27;20027;-79
2021/01/16 02:29:15;;;;;;;28.30;13.20;;;-6.40;93.90;;;;;;6374199;27;20465;-77
2021/01/16 02:32:16;;;;;;;19.50;10.40;;;-6.30;93.50;;;;;;6355645;27;20065;-77
2021/01/16 02:35:18;;;;;;;15.32;9.25;;;-6.30;94.80;;;;;;6355940;27;20024;-77
2021/01/16 02:38:27;;;;;;;41.17;17.38;;;-6.30;94.80;;;;;;6373943;27;20019;-76
2021/01/16 02:41:47;;;;;;;30.08;14.00;;;-5.80;99.90;;;;;;6373573;27;20026;-77
2021/01/16 02:44:59;;;;;;;17.98;9.93;;;-6.20;99.90;;;;;;6355456;27;20450;-76
2021/01/16 02:48:25;;;;;;;14.32;9.07;;;-6.20;94.00;;;;;;6355379;27;20529;-76
2021/01/16 02:51:31;;;;;;;11.35;7.80;;;-6.20;99.90;;;;;;6355297;27;20794;-78
2021/01/16 02:54:35;;;;;;;11.18;7.55;;;-6.10;95.10;;;;;;6373657;27;20019;-77
2021/01/16 02:57:36;;;;;;;12.15;7.95;;;-5.80;99.90;;;;;;6373423;27;20054;-77
2021/01/16 03:00:37;;;;;;;14.60;7.60;;;-6.00;94.20;;;;;;6373750;27;20027;-77
2021/01/16 03:03:38;;;;;;;11.38;8.05;;;-5.90;95.10;;;;;;6373225;27;20130;-77
2021/01/16 03:06:50;;;;;;;11.30;7.90;;;-5.90;94.00;;;;;;6373446;27;20449;-76
2021/01/16 03:09:51;;;;;;;11.55;7.38;;;-5.90;94.40;;;;;;6356287;27;20042;-76
2021/01/16 03:12:52;;;;;;;11.20;7.38;;;-6.10;99.90;;;;;;6373414;27;20027;-77
2021/01/16 03:15:53;;;;;;;11.23;7.65;;;-6.00;93.30;;;;;;6373141;27;20019;-76
2021/01/16 03:18:55;;;;;;;11.85;8.10;;;-6.00;93.70;;;;;;6354848;27;20026;-76
2021/01/16 03:21:56;;;;;;;;;;;-6.20;93.30;;;;;;6355294;27;20029;-77
2021/01/16 03:24:57;;;;;;;11.25;7.10;;;-6.20;95.40;;;;;;6372951;27;19899;-76
2021/01/16 03:27:58;;;;;;;14.88;7.65;;;;;;;;;;6372822;27;20094;-77
2021/01/16 03:30:58;;;;;;;13.98;8.75;;;-6.40;99.60;;;;;;6372795;27;20529;-76
2021/01/16 03:33:59;;;;;;;13.93;8.40;;;-6.10;95.90;;;;;;6372841;27;20023;-77
2021/01/16 03:37:00;;;;;;;11.93;8.25;;;-6.10;95.30;;;;;;6372677;27;20019;-77
2021/01/16 03:40:01;;;;;;;13.05;7.70;;;-6.00;95.70;;;;;;6372988;27;20106;-78
2021/01/16 03:43:01;;;;;;;12.00;8.05;;;-6.10;95.00;;;;;;6372669;27;20507;-78
2021/01/16 03:46:02;;;;;;;10.85;7.85;;;-6.00;95.20;;;;;;6372659;28;20027;-76
2021/01/16 03:49:03;;;;;;;13.05;8.88;;;-6.40;99.90;;;;;;6372586;28;20035;-77
2021/01/16 03:52:04;;;;;;;14.43;8.30;;;-6.20;95.50;;;;;;6372832;27;20023;-77
2021/01/16 03:55:05;;;;;;;14.05;8.80;;;-6.00;96.60;;;;;;6359380;27;20102;-77
2021/01/16 03:58:06;;;;;;;12.07;7.53;;;-6.20;95.70;;;;;;6377767;27;20032;-76
2021/01/16 04:01:07;;;;;;;10.07;7.18;;;-6.30;95.70;;;;;;6378296;27;20338;-78
2021/01/16 04:04:08;;;;;;;12.27;7.43;;;;;;;;;;6359000;27;20043;-76
2021/01/16 04:07:08;;;;;;;10.00;7.13;;;-6.10;99.60;;;;;;6377635;27;20047;-76
2021/01/16 04:10:09;;;;;;;10.07;7.45;;;-6.60;94.70;;;;;;6377463;27;20035;-77
2021/01/16 04:13:09;;;;;;;13.38;7.53;;;-6.60;94.40;;;;;;6377336;27;20098;-77
2021/01/16 04:16:10;;;;;;;11.13;7.47;;;-6.70;95.30;;;;;;6377382;27;20509;-76
2021/01/16 04:19:11;;;;;;;12.48;7.50;;;;;;;;;;6377618;27;20034;-77
2021/01/16 04:22:12;;;;;;;11.77;7.70;;;-6.80;99.90;;;;;;6377235;27;20015;-77
2021/01/16 04:25:12;;;;;;;13.50;8.10;;;-6.90;95.40;;;;;;6377501;27;20323;-77
2021/01/16 04:28:13;;;;;;;17.25;10.95;;;-6.80;94.70;;;;;;6377179;27;20023;-77
2021/01/16 04:31:13;;;;;;;13.23;6.45;;;-7.10;95.50;;;;;;6377082;27;20036;-76
2021/01/16 04:34:14;;;;;;;12.80;7.78;;;-7.00;96.50;;;;;;6377116;27;20019;-77
2021/01/16 04:37:15;;;;;;;11.13;7.30;;;-6.90;96.90;;;;;;6376907;27;20027;-78
2021/01/16 04:40:15;;;;;;;10.38;6.53;;;-6.80;97.40;;;;;;6376966;27;20031;-76
2021/01/16 04:43:16;;;;;;;9.52;6.97;;;-6.70;96.20;;;;;;6376741;27;20852;-78
2021/01/16 04:46:17;;;;;;;11.70;6.95;;;-6.80;95.70;;;;;;6376789;27;20019;-77
2021/01/16 04:49:20;;;;;;;10.43;7.25;;;-6.80;95.70;;;;;;6358359;27;20453;-76
2021/01/16 04:52:25;;;;;;;9.55;7.40;;;-6.90;95.40;;;;;;6376684;27;20031;-76
2021/01/16 04:55:25;;;;;;;15.05;7.65;;;-6.70;99.90;;;;;;6376552;27;20050;-77
2021/01/16 04:58:26;;;;;;;9.68;6.18;;;-7.00;95.50;;;;;;6341115;27;20034;-76
2021/01/16 05:01:27;;;;;;;10.98;7.75;;;-7.00;95.70;;;;;;6340995;27;20052;-78
2021/01/16 05:04:28;;;;;;;10.48;6.85;;;-7.30;94.90;;;;;;6375707;27;20036;-76
2021/01/16 05:07:29;;;;;;;9.63;6.55;;;-7.20;95.80;;;;;;6341103;27;20031;-77
2021/01/16 05:10:37;;;;;;;12.40;7.93;;;-7.70;99.90;;;;;;6357661;27;20361;-77
2021/01/16 05:13:45;;;;;;;13.23;7.35;;;-7.30;99.90;;;;;;6376133;27;20503;-77
2021/01/16 05:16:55;;;;;;;12.13;6.95;;;-7.30;94.90;;;;;;6375976;27;20019;-77
2021/01/16 05:19:56;;;;;;;11.32;7.32;;;-7.20;96.60;;;;;;6376069;27;20051;-78
2021/01/16 05:23:12;;;;;;;9.63;6.32;;;-7.10;97.40;;;;;;6340574;27;20475;-76
2021/01/16 05:26:12;;;;;;;10.20;6.75;;;-7.40;99.90;;;;;;6375891;27;20113;-77
2021/01/16 05:29:13;;;;;;;10.80;7.72;;;-7.30;95.40;;;;;;6375487;27;20035;-77
2021/01/16 05:32:14;;;;;;;9.55;6.82;;;-7.40;95.30;;;;;;6375765;27;20372;-78
2021/01/16 05:35:18;;;;;;;11.75;6.95;;;-7.30;96.20;;;;;;6375791;27;20084;-76
2021/01/16 05:38:38;;;;;;;37.40;20.13;;;-7.20;96.90;;;;;;6375578;27;20074;-78
2021/01/16 05:41:42;;;;;;;13.43;7.80;;;-7.40;99.90;;;;;;6375775;27;20051;-76
2021/01/16 05:44:43;;;;;;;11.50;7.88;;;-7.40;95.20;;;;;;6357964;27;20122;-77
2021/01/16 05:47:43;;;;;;;10.25;6.80;;;-7.40;96.30;;;;;;6340077;27;20357;-77
2021/01/16 05:50:44;;;;;;;11.05;7.65;;;-7.50;94.20;;;;;;6375689;27;20066;-77
2021/01/16 05:53:44;;;;;;;10.48;6.75;;;-7.60;95.70;;;;;;6375527;27;20035;-77
2021/01/16 05:56:46;;;;;;;10.02;6.65;;;-7.40;99.90;;;;;;6339871;27;20027;-77
2021/01/16 05:59:47;;;;;;;10.77;6.90;;;-7.90;99.90;;;;;;6375394;27;20030;-77
2021/01/16 06:02:48;;;;;;;10.63;7.20;;;-7.50;97.00;;;;;;6339932;27;20019;-76
2021/01/16 06:05:50;;;;;;;10.60;7.25;;;-7.40;96.00;;;;;;6339661;27;20051;-77
2021/01/16 06:08:54;;;;;;;12.27;7.25;;;-7.50;95.80;;;;;;6374877;27;20368;-77
2021/01/16 06:11:55;;;;;;;11.90;7.55;;;-7.60;95.10;;;;;;6375150;27;20020;-77
2021/01/16 06:14:55;;;;;;;15.40;8.68;;;-5.90;95.70;;;;;;6339002;27;20575;-76
2021/01/16 06:17:56;;;;;;;17.33;11.02;;;-7.80;95.70;;;;;;6339100;27;20072;-76
2021/01/16 06:20:57;;;;;;;16.75;9.63;;;-7.70;94.90;;;;;;6339491;27;20057;-77
2021/01/16 06:23:58;;;;;;;12.98;8.93;;;-7.80;95.40;;;;;;6374675;27;20040;-76
2021/01/16 06:26:59;;;;;;;11.82;7.95;;;-7.80;95.60;;;;;;6374897;27;20031;-76
2021/01/16 06:30:01;;;;;;;12.57;8.52;;;-7.90;99.90;;;;;;6356202;27;20577;-76
2021/01/16 06:33:01;;;;;;;11.73;7.75;;;-7.70;99.90;;;;;;6374597;27;20368;-77
2021/01/16 06:36:03;;;;;;;11.48;7.57;;;-6.20;96.30;;;;;;6338902;27;20030;-77
2021/01/16 06:39:06;;;;;;;11.90;7.88;;;-7.70;96.40;;;;;;6356081;27;20102;-76
2021/01/16 06:42:08;;;;;;;11.63;8.45;;;-7.70;96.00;;;;;;6374204;27;20027;-77
2021/01/16 06:45:10;;;;;;;12.18;8.38;;;-7.30;96.70;;;;;;6356067;27;20027;-76
2021/01/16 06:48:10;;;;;;;12.02;7.57;;;-7.70;96.00;;;;;;6373914;27;20372;-76
2021/01/16 06:51:22;;;;;;;13.27;8.30;;;-7.80;95.50;;;;;;6374253;27;20023;-76
2021/01/16 06:54:26;;;;;;;14.10;9.43;;;-7.60;95.70;;;;;;6373853;27;20037;-77
2021/01/16 06:57:27;;;;;;;18.25;11.68;;;-7.90;96.00;;;;;;6374020;27;20106;-76
2021/01/16 07:00:27;;;;;;;13.50;8.57;;;-7.80;97.00;;;;;;6374064;27;20029;-76
2021/01/16 07:03:28;;;;;;;11.13;7.45;;;-8.00;99.90;;;;;;6355102;27;20019;-76
2021/01/16 07:06:50;;;;;;;12.38;6.75;;;-7.80;95.60;;;;;;6338259;27;20429;-77
2021/01/16 07:09:50;;;;;;;10.48;7.22;;;-7.70;96.00;;;;;;6357972;27;20074;-78
2021/01/16 07:12:51;;;;;;;13.85;7.80;;;-8.00;94.10;;;;;;6355171;27;20019;-76
2021/01/16 07:15:52;;;;;;;13.05;7.93;;;-8.00;95.00;;;;;;6373691;27;20023;-77
2021/01/16 07:18:53;;;;;;;12.52;7.72;;;-8.30;99.90;;;;;;6355339;27;20031;-77
2021/01/16 07:21:54;;;;;;;11.10;7.18;;;-8.20;94.40;;;;;;6338011;27;20437;-76
2021/01/16 07:24:55;;;;;;;10.93;7.65;;;-8.10;95.00;;;;;;6355146;27;20066;-76
2021/01/16 07:27:56;;;;;;;16.00;9.30;;;-8.30;94.60;;;;;;6373196;27;20067;-77
2021/01/16 07:30:57;;;;;;;20.08;11.27;;;-8.20;95.90;;;;;;6373305;27;20062;-76
2021/01/16 07:33:58;;;;;;;30.25;16.55;;;;;;;;;;6373145;27;20023;-75
2021/01/16 07:36:59;;;;;;;21.35;11.68;;;-8.10;99.90;;;;;;6355113;27;20023;-77
2021/01/16 07:40:00;;;;;;;23.17;13.10;;;-8.00;99.90;;;;;;6337858;27;20030;-77
2021/01/16 07:43:01;;;;;;;13.77;8.93;;;-8.10;95.60;;;;;;6354684;28;20050;-78
2021/01/16 07:46:09;;;;;;;24.07;12.17;;;-6.90;96.60;;;;;;6354662;28;20030;-77
2021/01/16 07:49:09;;;;;;;14.43;8.65;;;-7.80;96.10;;;;;;6372743;27;20350;-76
2021/01/16 07:52:10;;;;;;;17.27;10.43;;;-7.70;96.20;;;;;;6337819;28;20027;-76
2021/01/16 07:55:11;;;;;;;11.95;8.10;;;-7.60;95.60;;;;;;6337659;27;20509;-78
2021/01/16 07:58:32;;;;;;;15.48;9.05;;;-6.70;95.30;;;;;;6354442;28;20056;-78
2021/01/16 08:01:44;;;;;;;14.52;9.95;;;-5.60;92.20;;;;;;6372770;27;20027;-77
2021/01/16 08:05:04;;;;;;;44.10;22.92;;;-3.60;96.60;;;;;;6355204;28;20041;-77
2021/01/16 08:08:39;;;;;;;21.02;11.80;;;-3.70;86.10;;;;;;6372549;27;20020;-79
2021/01/16 08:11:48;;;;;;;25.30;15.27;;;-3.20;81.90;;;;;;6336116;28;20092;-77
2021/01/16 08:14:48;;;;;;;37.70;20.70;;;-3.30;78.10;;;;;;6372946;28;20019;-77
2021/01/16 08:17:49;;;;;;;27.45;16.20;;;-2.50;77.60;;;;;;6372560;28;20472;-79
2021/01/16 08:20:50;;;;;;;18.23;12.80;;;-2.60;76.60;;;;;;6337468;28;20026;-78
2021/01/16 08:23:50;;;;;;;19.25;13.27;;;-2.10;73.20;;;;;;6354227;27;20023;-78
2021/01/16 08:27:00;;;;;;;21.13;13.50;;;-2.40;74.10;;;;;;6337324;27;20027;-77
2021/01/16 08:30:12;;;;;;;18.98;11.73;;;-1.90;69.40;;;;;;6355108;28;20027;-77
2021/01/16 08:33:13;;;;;;;14.32;10.27;;;-1.30;70.10;;;;;;6372293;27;20092;-79
2021/01/16 08:36:17;;;;;;;13.32;9.35;;;0.30;71.10;;;;;;6372440;27;20024;-77
2021/01/16 08:39:25;;;;;;;13.90;9.23;;;-1.40;69.20;;;;;;6355500;27;20055;-77
2021/01/16 08:42:26;;;;;;;18.33;13.18;;;0.20;71.80;;;;;;6377338;27;20024;-77
2021/01/16 08:45:27;;;;;;;11.52;8.43;;;0.70;68.10;;;;;;6376791;27;20065;-78
2021/01/16 08:48:28;;;;;;;14.15;10.55;;;-0.10;68.30;;;;;;6376942;27;20441;-80
2021/01/16 08:51:45;;;;;;;14.65;11.43;;;0.40;65.40;;;;;;6376906;27;20560;-75
2021/01/16 08:54:58;;;;;;;14.23;10.75;;;0.00;61.90;;;;;;6376837;27;20031;-77
2021/01/16 08:58:08;;;;;;;19.13;13.85;;;1.30;65.40;;;;;;6376670;27;20342;-77
2021/01/16 09:01:09;;;;;;;17.40;11.77;;;0.80;62.30;;;;;;6376769;27;20075;-79
2021/01/16 09:04:24;;;;;;;10.40;8.07;;;1.80;62.90;;;;;;6357775;27;20122;-77
2021/01/16 09:07:24;;;;;;;25.45;19.60;;;0.80;62.90;;;;;;6376418;27;20461;-78
2021/01/16 09:10:25;;;;;;;10.50;8.00;;;0.80;61.60;;;;;;6357974;27;20100;-76
2021/01/16 09:13:28;;;;;;;17.08;13.35;;;1.90;61.70;;;;;;6376210;27;20029;-76
2021/01/16 09:16:30;;;;;;;37.78;25.75;;;2.10;58.10;;;;;;6376172;27;20334;-76
2021/01/16 09:19:30;;;;;;;10.07;8.73;;;2.40;58.90;;;;;;6376370;27;20035;-78
2021/01/16 09:22:31;;;;;;;12.88;9.18;;;1.90;59.70;;;;;;6357871;27;20022;-78
2021/01/16 09:25:32;;;;;;;12.98;11.57;;;1.30;58.10;;;;;;6375812;27;20023;-76
2021/01/16 09:28:43;;;;;;;10.63;8.32;;;3.50;61.70;;;;;;6375889;27;20087;-77
2021/01/16 09:31:45;;;;;;;12.48;9.65;;;2.80;55.00;;;;;;6376097;27;20471;-77
2021/01/16 09:34:45;;;;;;;27.85;17.83;;;2.50;56.50;;;;;;6375819;27;20031;-79
2021/01/16 09:37:46;;;;;;;13.00;8.88;;;3.10;57.60;;;;;;6357350;27;20040;-77
2021/01/16 09:40:47;;;;;;;10.68;8.90;;;2.20;57.90;;;;;;6357410;27;20098;-77
2021/01/16 09:43:48;;;;;;;11.73;8.98;;;3.00;58.90;;;;;;6375493;27;20088;-76
2021/01/16 09:46:48;;;;;;;14.70;8.85;;;1.10;58.70;;;;;;6357325;27;20449;-78
2021/01/16 09:49:49;;;;;;;15.30;9.70;;;2.60;61.40;;;;;;6375011;27;20111;-76
2021/01/16 09:52:52;;;;;;;15.13;10.13;;;1.80;60.80;;;;;;6375074;27;20063;-79
2021/01/16 09:55:54;;;;;;;9.95;7.13;;;2.90;71.90;;;;;;6375440;27;20485;-76
2021/01/16 09:59:00;;;;;;;8.85;6.80;;;3.20;55.90;;;;;;6357415;27;20070;-76
2021/01/16 10:02:07;;;;;;;12.02;8.73;;;3.40;54.70;;;;;;6356819;27;20027;-78
2021/01/16 10:05:40;;;;;;;10.93;8.18;;;4.30;54.30;;;;;;6375013;27;20041;-77
2021/01/16 10:08:40;;;;;;;10.15;8.15;;;3.90;52.90;;;;;;6374931;27;20049;-77
2021/01/16 10:11:42;;;;;;;9.57;7.65;;;4.20;53.40;;;;;;6375112;27;20031;-77
2021/01/16 10:14:43;;;;;;;9.57;8.03;;;4.10;55.50;;;;;;6374932;27;20019;-76
2021/01/16 10:17:51;;;;;;;8.77;7.40;;;3.70;54.10;;;;;;6339707;27;20019;-77
2021/01/16 10:21:08;;;;;;;9.07;7.63;;;3.50;53.50;;;;;;6374751;27;20069;-77
2021/01/16 10:24:19;;;;;;;10.95;8.10;;;3.00;54.00;;;;;;6357327;27;20509;-77
2021/01/16 10:27:41;;;;;;;13.40;10.70;;;3.20;54.70;;;;;;6356125;27;20457;-77
2021/01/16 10:30:56;;;;;;;9.93;6.95;;;3.60;54.90;;;;;;6338852;27;20039;-76
2021/01/16 10:34:07;;;;;;;8.95;6.53;;;3.40;54.00;;;;;;6374142;27;20023;-77
2021/01/16 10:37:09;;;;;;;12.82;9.30;;;3.50;54.10;;;;;;6355829;27;20031;-77
2021/01/16 10:40:10;;;;;;;10.30;8.05;;;3.70;56.50;;;;;;6339047;27;20016;-77
2021/01/16 10:43:11;;;;;;;10.70;9.07;;;3.80;55.20;;;;;;6374335;27;20027;-76
2021/01/16 10:46:30;;;;;;;10.40;9.30;;;4.40;56.10;;;;;;6338529;27;20054;-76
2021/01/16 10:49:32;;;;;;;10.48;8.73;;;4.80;54.00;;;;;;6358632;27;20338;-77
2021/01/16 10:52:33;;;;;;;12.87;10.03;;;5.30;54.00;;;;;;6338453;27;20473;-78
2021/01/16 10:55:55;;;;;;;9.30;7.53;;;4.90;54.80;;;;;;6373926;27;20287;-76
2021/01/16 10:59:13;;;;;;;16.33;13.88;;;5.20;53.60;;;;;;6373773;27;20023;-76
2021/01/16 11:02:15;;;;;;;8.60;6.70;;;4.70;56.20;;;;;;6373328;27;20043;-77
2021/01/16 11:05:15;;;;;;;15.57;13.03;;;4.90;56.70;;;;;;6373686;27;20058;-78
2021/01/16 11:08:18;;;;;;;9.18;7.28;;;5.40;54.80;;;;;;6373504;27;20019;-76
2021/01/16 11:11:26;;;;;;;8.57;7.13;;;5.50;54.50;;;;;;6355479;27;20434;-76
2021/01/16 11:14:42;;;;;;;10.63;8.30;;;5.60;52.60;;;;;;6373870;27;20029;-77
2021/01/16 11:17:52;;;;;;;10.05;8.35;;;5.50;55.30;;;;;;6373658;27;20025;-76
2021/01/16 11:21:00;;;;;;;10.35;8.68;;;4.70;57.10;;;;;;6373347;27;20098;-76
2021/01/16 11:24:12;;;;;;;12.05;8.95;;;4.70;56.10;;;;;;6373277;27;20050;-80
2021/01/16 11:27:15;;;;;;;11.02;8.30;;;4.70;58.20;;;;;;6373305;27;20019;-78
2021/01/16 11:30:19;;;;;;;10.48;9.07;;;4.40;57.50;;;;;;6355400;27;20045;-75
2021/01/16 11:33:26;;;;;;;11.55;8.57;;;3.70;72.00;;;;;;6338411;27;20052;-78
2021/01/16 11:36:26;;;;;;;11.57;8.82;;;3.80;62.00;;;;;;6373138;27;20364;-76
2021/01/16 11:39:41;;;;;;;11.35;9.68;;;4.10;60.70;;;;;;6373183;27;20023;-78
2021/01/16 11:42:50;;;;;;;18.50;11.98;;;4.10;62.80;;;;;;6373325;27;20034;-76
2021/01/16 11:45:50;;;;;;;11.23;9.05;;;4.20;63.00;;;;;;6354964;28;20019;-76
2021/01/16 11:48:51;;;;;;;13.55;12.15;;;4.00;77.00;;;;;;6337349;28;20441;-75
2021/01/16 11:51:52;;;;;;;10.05;8.75;;;3.80;64.00;;;;;;6337572;28;20038;-77
2021/01/16 11:54:52;;;;;;;11.88;9.85;;;3.80;63.30;;;;;;6337552;27;20022;-75
2021/01/16 11:57:55;;;;;;;11.88;10.02;;;3.70;63.90;;;;;;6372931;28;20108;-76
2021/01/16 12:00:55;;;;;;;15.90;12.15;;;4.50;63.00;;;;;;6338035;28;20016;-76
2021/01/16 12:04:03;;;;;;;14.80;11.38;;;4.20;63.30;;;;;;6326031;28;795776;-75
2021/01/16 12:07:03;;;;;;;14.32;11.25;;;3.60;64.10;;;;;;6372626;27;20027;-76
2021/01/16 12:10:04;;;;;;;16.63;13.88;;;4.00;65.10;;;;;;6354485;28;20396;-75
2021/01/16 12:13:09;;;;;;;14.98;11.52;;;3.30;62.70;;;;;;6337767;27;20441;-75
2021/01/16 12:16:11;;;;;;;13.88;11.68;;;3.10;63.40;;;;;;6378201;27;20435;-76
2021/01/16 12:19:15;;;;;;;11.23;9.32;;;3.30;64.40;;;;;;6359721;27;20050;-75
2021/01/16 12:22:17;;;;;;;10.50;8.88;;;4.70;63.40;;;;;;6377895;27;20027;-75
2021/01/16 12:25:18;;;;;;;14.02;10.13;;;4.00;60.90;;;;;;6342472;27;20094;-76
2021/01/16 12:28:24;;;;;;;13.05;10.68;;;3.70;64.20;;;;;;6377407;27;20027;-76
2021/01/16 12:31:25;;;;;;;13.23;10.23;;;3.80;63.70;;;;;;6359075;27;20019;-77
2021/01/16 12:34:27;;;;;;;12.48;9.70;;;3.20;65.50;;;;;;6377163;27;20031;-76
2021/01/16 12:37:32;;;;;;;12.45;9.70;;;3.10;66.00;;;;;;6377499;27;20019;-76
2021/01/16 12:40:32;;;;;;;13.30;10.48;;;2.50;66.30;;;;;;6377020;27;20373;-76
2021/01/16 12:43:33;;;;;;;12.27;9.23;;;2.90;68.50;;;;;;6341639;27;20023;-76
2021/01/16 12:46:34;;;;;;;10.77;9.00;;;3.00;68.30;;;;;;6377016;27;20022;-77
2021/01/16 12:49:34;;;;;;;12.00;9.02;;;2.90;68.60;;;;;;6324874;27;20027;-76
2021/01/16 12:52:35;;;;;;;11.20;8.85;;;2.50;68.60;;;;;;6358518;27;20123;-75
2021/01/16 12:55:35;;;;;;;13.50;9.75;;;3.20;82.30;;;;;;6376792;27;20057;-76
2021/01/16 12:58:39;;;;;;;12.45;10.25;;;3.10;70.20;;;;;;6376723;27;20024;-76
2021/01/16 13:01:44;;;;;;;15.10;11.18;;;2.40;69.70;;;;;;6376805;27;20023;-76
2021/01/16 13:04:45;;;;;;;15.18;11.43;;;2.10;70.10;;;;;;6376916;27;20043;-76
2021/01/16 13:07:46;;;;;;;14.15;11.18;;;2.50;70.10;;;;;;6358199;27;20077;-76
2021/01/16 13:10:52;;;;;;;17.23;12.25;;;3.30;71.00;;;;;;6341293;27;20045;-75
2021/01/16 13:13:56;;;;;;;15.85;12.18;;;3.30;70.00;;;;;;6376377;27;20160;-76
2021/01/16 13:16:57;;;;;;;14.63;11.88;;;1.90;69.50;;;;;;6358738;27;20026;-77
2021/01/16 13:19:58;;;;;;;16.75;11.95;;;3.00;71.20;;;;;;6357931;27;20066;-75
2021/01/16 13:22:58;;;;;;;18.30;12.43;;;2.80;71.40;;;;;;6358002;27;20068;-76
2021/01/16 13:25:59;;;;;;;15.60;11.68;;;1.80;72.10;;;;;;6375898;27;20023;-76
2021/01/16 13:29:04;;;;;;;17.98;12.45;;;1.00;94.90;;;;;;6375937;27;20460;-75
2021/01/16 13:32:05;;;;;;;16.58;11.70;;;1.10;73.50;;;;;;6358197;27;20325;-76
2021/01/16 13:35:07;;;;;;;17.53;13.00;;;2.10;73.40;;;;;;6357457;27;20038;-78
2021/01/16 13:38:08;;;;;;;16.17;11.95;;;1.10;73.30;;;;;;6357693;27;20414;-75
2021/01/16 13:41:08;;;;;;;20.52;12.00;;;1.10;73.80;;;;;;6357369;27;20027;-75
2021/01/16 13:44:16;;;;;;;14.13;11.48;;;1.10;81.50;;;;;;6375765;27;20508;-76
2021/01/16 13:47:17;;;;;;;14.45;11.77;;;2.00;74.30;;;;;;6375459;27;20118;-78
2021/01/16 13:50:21;;;;;;;16.02;11.80;;;0.70;73.90;;;;;;6375510;27;20043;-76
2021/01/16 13:53:22;;;;;;;17.25;12.13;;;1.10;74.00;;;;;;6375377;27;20081;-76
2021/01/16 13:56:23;;;;;;;17.73;12.10;;;1.30;73.80;;;;;;6340072;27;20023;-79
2021/01/16 13:59:33;;;;;;;17.38;12.63;;;0.90;95.40;;;;;;6375189;27;20027;-76
2021/01/16 14:02:34;;;;;;;16.75;11.98;;;1.30;85.80;;;;;;6375461;27;20011;-78
2021/01/16 14:05:34;;;;;;;14.68;11.45;;;1.90;76.00;;;;;;6375335;27;20055;-79
2021/01/16 14:08:35;;;;;;;14.52;10.88;;;1.10;75.20;;;;;;6374882;27;20027;-79
2021/01/16 14:11:42;;;;;;;15.63;11.38;;;1.70;75.60;;;;;;6375114;27;20031;-75
2021/01/16 14:14:43;;;;;;;14.45;11.48;;;;;;;;;;6374863;27;20023;-75
2021/01/16 14:17:44;;;;;;;16.77;12.60;;;1.80;88.00;;;;;;6375006;27;20015;-76
2021/01/16 14:20:44;;;;;;;16.98;12.70;;;0.60;76.00;;;;;;6374735;27;20051;-75
2021/01/16 14:23:45;;;;;;;19.98;12.07;;;0.40;76.30;;;;;;6374904;27;20019;-76
2021/01/16 14:27:04;;;;;;;18.25;12.45;;;2.50;76.90;;;;;;6374636;27;20026;-75
2021/01/16 14:30:06;;;;;;;15.27;11.82;;;0.40;75.80;;;;;;6374844;27;20045;-76
2021/01/16 14:33:13;;;;;;;17.42;12.88;;;0.00;76.70;;;;;;6374340;27;20030;-78
2021/01/16 14:36:21;;;;;;;16.70;12.27;;;-0.30;78.20;;;;;;6373728;27;20119;-78
2021/01/16 14:39:22;;;;;;;16.65;12.18;;;-0.60;78.50;;;;;;6374294;27;20022;-80
2021/01/16 14:42:22;;;;;;;19.23;12.77;;;-0.70;79.90;;;;;;6374429;27;20023;-79
2021/01/16 14:45:23;;;;;;;16.77;11.90;;;-1.00;79.90;;;;;;6374160;27;20026;-77
2021/01/16 14:48:24;;;;;;;16.90;11.85;;;0.20;81.60;;;;;;6374149;27;20449;-76
2021/01/16 14:51:25;;;;;;;17.00;13.18;;;0.20;82.20;;;;;;6374017;27;20031;-77
2021/01/16 14:54:26;;;;;;;18.35;13.10;;;-0.70;82.60;;;;;;6374272;27;20031;-78
2021/01/16 14:57:46;;;;;;;20.38;14.13;;;0.40;83.50;;;;;;6373804;27;20022;-78
2021/01/16 15:00:47;;;;;;;21.08;16.00;;;-0.80;82.70;;;;;;6374074;27;20338;-78
2021/01/16 15:03:51;;;;;;;28.33;18.33;;;-1.20;83.50;;;;;;6373464;27;20022;-78
2021/01/16 15:06:57;;;;;;;31.20;20.60;;;-0.30;84.70;;;;;;6355235;27;20027;-78
2021/01/16 15:09:58;;;;;;;30.35;19.30;;;-1.00;85.20;;;;;;6373705;27;20035;-78
2021/01/16 15:12:59;;;;;;;29.13;18.80;;;-0.80;86.80;;;;;;6373466;27;20463;-78
2021/01/16 15:15:59;;;;;;;29.17;17.45;;;-1.60;86.00;;;;;;6373625;27;20019;-78
2021/01/16 15:19:00;;;;;;;29.30;18.10;;;-1.50;88.20;;;;;;6373355;27;20470;-77
2021/01/16 15:22:03;;;;;;;30.35;17.88;;;-1.80;99.90;;;;;;6373574;27;20019;-78
2021/01/16 15:25:04;;;;;;;30.75;19.38;;;-3.40;87.00;;;;;;6355160;27;20441;-78
2021/01/16 15:28:08;;;;;;;31.83;18.30;;;-1.90;89.30;;;;;;6373523;27;20100;-77
2021/01/16 15:31:10;;;;;;;29.48;17.45;;;-2.10;88.50;;;;;;6354871;27;20049;-77
2021/01/16 15:34:11;;;;;;;33.03;18.50;;;-0.20;90.40;;;;;;6373428;27;20023;-77
2021/01/16 15:37:12;;;;;;;31.90;17.80;;;-2.00;99.90;;;;;;6372919;27;20080;-78
2021/01/16 15:40:13;;;;;;;31.25;19.05;;;-2.20;95.10;;;;;;6337921;27;20038;-79
2021/01/16 15:43:15;;;;;;;31.73;18.60;;;-2.10;90.10;;;;;;6354742;27;20027;-77
2021/01/16 15:46:16;;;;;;;27.52;17.45;;;-2.10;90.10;;;;;;6373059;27;20077;-77